Flight Track Log - Related Links

Times and Time Zones

All times are in EDT time to prevent confusion due to time zone crossing. See the N789EX flight status page for this flight to view local times or setup timezone preferences in your user account.

Time Position Orientation Groundspeed Altitude Reporting Facility
EDT Latitude Longitude Course Direction KTS MPH feet Rate Location/Type
Sat 03:08:11 PM 47.3214 -119.3775 339° North 245 282 7,300  Level Seattle Center
Sat 03:09:12 PM 47.3875 -119.4142 339° North 254 292 10,800 3,443 Climbing Seattle Center
Sat 03:10:13 PM 47.4511 -119.4469 341° North 242 278 14,300 1,820 Climbing Seattle Center
Sat 03:11:14 PM 47.5042 -119.4714 343° North 194 223 14,500  Climbing Seattle Center
Sat 03:12:15 PM 47.5503 -119.4925 343° North 167 192 14,300  Descending Seattle Center
Sat 03:13:16 PM 47.5947 -119.5153 341° North 168 193 14,500 -347 Climbing Seattle Center
Sat 03:14:16 PM 47.6386 -119.5397 339° North 168 193 13,600 -1,140 Descending Seattle Center
Sat 03:15:17 PM 47.6794 -119.5603 341° North 156 180 12,200 -1,770 Descending Seattle Center
Sat 03:16:18 PM 47.7183 -119.5764 344° North 163 188 10,000 -295 Descending Seattle Center
Sat 03:17:19 PM 47.7717 -119.6006 343° North 186 214 11,600 1,475 Climbing Seattle Center
Sat 03:18:20 PM 47.8208 -119.6172 347° North 180 207 13,000 689 Climbing Seattle Center
Sat 03:19:21 PM 47.8636 -119.6406 340° North 167 192 13,000 -49 Level Seattle Center
Sat 03:20:22 PM 47.8719 -119.5900 76° East 170 196 12,900 49 Descending Seattle Center
Sat 03:21:23 PM 47.8633 -119.5183 100° East 178 205 13,100 -98 Climbing Seattle Center
Sat 03:22:24 PM 47.8397 -119.4667 124° Southeast 170 196 12,700 148 Descending Seattle Center
Sat 03:23:25 PM 47.7883 -119.4853 194° South 189 217 13,400 934 Climbing Seattle Center
Sat 03:24:26 PM 47.7333 -119.5119 198° South 207 238 14,600 541 Climbing Seattle Center
Sat 03:25:27 PM 47.6900 -119.5644 219° Southwest 200 230 14,500 -545 Descending Seattle Center
Sat 03:26:27 PM 47.6486 -119.6147 219° Southwest 198 228 13,500 -1,091 Descending Seattle Center
Sat 03:27:28 PM 47.6086 -119.6669 221° Southwest 185 213 12,300 -639 Descending Seattle Center
Sat 03:28:29 PM 47.5681 -119.7236 223° Southwest 200 230 12,200 -344 Descending Seattle Center
Sat 03:29:30 PM 47.5503 -119.7850 247° West 196 226 11,600 -49 Descending Seattle Center
Sat 03:30:31 PM 47.5903 -119.8206 329° Northwest 176 203 12,100 49 Climbing Seattle Center
Sat 03:31:32 PM 47.6261 -119.8500 331° Northwest 141 162 11,700 738 Descending Seattle Center
Sat 03:32:33 PM 47.6803 -119.8858 336° Northwest 192 221 13,600 1,240 Climbing Seattle Center
Sat 03:33:33 PM 47.7147 -119.9406 313° West 190 219 14,200 -843 Climbing Seattle Center
Sat 03:34:34 PM 47.7358 -120.0183 292° West 203 234 11,900 -885 Descending Seattle Center
Sat 03:35:35 PM 47.7514 -120.0889 288° West 183 211 12,400 689 Climbing Seattle Center
Sat 03:36:36 PM 47.7728 -120.1556 296° West 182 209 13,300 443 Climbing Seattle Center
Sat 03:37:37 PM 47.8192 -120.1089 34° Northeast 191 220 13,300 541 Level Seattle Center
Sat 03:38:38 PM 47.8569 -120.0689 35° Northeast 189 217 14,400 492 Climbing Seattle Center
Sat 03:39:39 PM 47.9169 -120.0075 34° Northeast 243 280 14,300 -347 Descending Seattle Center
Sat 03:40:39 PM 47.9697 -119.9572 33° Northeast 233 268 13,700 -992 Descending Seattle Center
Sat 03:41:40 PM 48.0167 -119.9086 35° Northeast 211 243 12,300 639 Descending Seattle Center
Sat 03:42:41 PM 48.0844 -119.8314 37° Northeast 275 316 15,000 787 Climbing Seattle Center
Sat 03:43:42 PM 48.1353 -119.7775 35° Northeast 275 316 13,900 -295 Descending Seattle Center
Sat 03:44:43 PM 48.1542 -119.6986 70° East 271 312 14,400 443 Climbing Seattle Center
Sat 03:45:44 PM 48.1206 -119.6108 120° Southeast 253 291 14,800 -689 Climbing Seattle Center
Sat 03:46:45 PM 48.0853 -119.5039 116° Southeast 247 284 13,000 -1,279 Descending Seattle Center
Sat 03:47:46 PM 48.0206 -119.4725 162° South 250 288 12,200 98 Descending Seattle Center
Sat 03:48:47 PM 47.9461 -119.4372 162° South 259 298 13,200 1,339 Climbing Seattle Center
Sat 03:49:47 PM 47.8794 -119.3944 157° South 259 298 14,900 942 Climbing Seattle Center
Sat 03:50:48 PM 47.8189 -119.3522 155° Southeast 239 275 15,100  Climbing Seattle Center
Sat 03:51:49 PM 47.7664 -119.3203 158° South 206 237 14,900  Descending Seattle Center
Sat 03:52:50 PM 47.7114 -119.2869 158° South 215 247 15,100 98 Climbing Seattle Center
Sat 03:53:51 PM 47.6608 -119.3269 208° Southwest 223 257 15,100 -98 Level Seattle Center
Sat 03:54:52 PM 47.6881 -119.2881 44° Northeast 205 236 14,900 49 Descending Seattle Center
Sat 03:55:53 PM 47.7036 -119.2092 74° East 201 231 15,200 50 Climbing Seattle Center
Sat 03:56:53 PM 47.7208 -119.1150 75° East 239 275 15,000 446 Descending Seattle Center
Sat 03:57:54 PM 47.7422 -118.9769 77° East 344 396 16,100 1,426 Climbing Seattle Center
Sat 03:58:55 PM 47.7631 -118.8431 204° Southwest 381 438 17,900 2,311 Climbing Seattle Center
Sat 03:59:00 PM 47.7122 -118.9964 204° Southwest  Level Estimated
Sat 03:59:56 PM 47.7844 -118.6797 79° East 400 460 20,800  Level Seattle Center
Sat 04:00:57 PM 47.8100 -118.4783 79° East 410 472 23,900 2,607 Climbing Seattle Center
Sat 04:01:58 PM 47.8286 -118.3067 81° East 419 482 26,100 1,918 Climbing Seattle Center
Sat 04:02:59 PM 47.8475 -118.1297 81° East 429 494 27,800 1,623 Climbing Seattle Center
Sat 04:04:00 PM 47.8664 -117.9478 81° East 443 510 29,400 1,623 Climbing Seattle Center
Sat 04:05:01 PM 47.8828 -117.7608 82° East 451 519 31,100 1,426 Climbing Seattle Center
Sat 04:06:02 PM 47.9031 -117.5750 81° East 452 520 32,300 1,180 Climbing Seattle Center
Sat 04:07:03 PM 47.9258 -117.3825 80° East 463 533 33,500 1,289 Climbing Seattle Center
Sat 04:08:03 PM 47.9503 -117.1881 79° East 469 540 34,900 744 Climbing Seattle Center
Sat 04:09:04 PM 47.9753 -116.9917 79° East 474 545 35,000 49 Climbing Seattle Center
Sat 04:10:05 PM 47.9994 -116.7950 80° East 477 549 35,000 -295 Level Seattle Center
Sat 04:11:06 PM 48.1161 -116.7589 12° North 494 568 34,400  Descending Seattle Center
Sat 04:12:07 PM 48.2083 -116.6472 39° Northeast 481 554 35,000 344 Climbing Seattle Center
Sat 04:13:08 PM 48.2606 -116.4636 67° East 475 547 35,100  Climbing Seattle Center
Sat 04:14:09 PM 48.3161 -116.2822 65° Northeast 476 548 35,000 -248 Descending Seattle Center
Sat 04:15:09 PM 48.3531 -116.0953 73° East 497 572 34,600 -99 Descending Seattle Center
Sat 04:16:10 PM 48.2247 -116.0656 171° South 519 597 34,800 49 Climbing Seattle Center
Sat 04:17:11 PM 48.1475 -116.2336 235° Southwest 505 581 34,700 -148 Descending Seattle Center
Sat 04:18:12 PM 48.0817 -116.4256 243° Southwest 512 589 34,500 -148 Descending Seattle Center
Sat 04:19:13 PM 48.0372 -116.6722 255° West 521 600 34,400 50 Descending Seattle Center
Sat 04:20:13 PM 48.0283 -116.8811 266° West 524 603 34,600  Climbing Seattle Center
Sat 04:21:14 PM 47.9781 -117.0797 249° West 540 621 34,400 -49 Descending Seattle Center
Sat 04:22:15 PM 47.9642 -117.2894 264° West 548 631 34,500 148 Climbing Seattle Center
Sat 04:23:16 PM 47.9081 -117.4911 248° West 540 621 34,700 148 Climbing Seattle Center
Sat 04:24:17 PM 47.8536 -117.6869 248° West 525 604 34,800 -344 Climbing Seattle Center
Sat 04:25:18 PM 47.8017 -117.8836 249° West 518 596 34,000 -50 Descending Seattle Center
Sat 04:26:18 PM 47.7539 -118.0775 250° West 506 582 34,700  Climbing Seattle Center
Sat 04:27:19 PM 47.7053 -118.2725 250° West 505 581 34,000 -836 Descending Seattle Center
Sat 04:28:20 PM 47.6764 -118.4689 258° West 481 554 33,000 -2,410 Descending Seattle Center
Sat 04:29:21 PM 47.6922 -118.7006 276° West 472 543 29,100 -3,000 Descending Seattle Center
Sat 04:30:22 PM 47.7092 -118.8783 278° West 432 497 26,900 -2,311 Descending Seattle Center
Sat 04:31:23 PM 47.7267 -119.0503 279° West 419 482 24,400 -1,488 Descending Seattle Center
Sat 04:32:23 PM 47.7406 -119.2072 278° West 393 452 23,900 -1,983 Descending Seattle Center
Sat 04:33:24 PM 47.7656 -119.3633 283° West 385 443 20,400 -2,557 Descending Seattle Center
Sat 04:34:25 PM 47.7942 -119.5139 286° West 384 442 18,700 -2,016 Descending Seattle Center
Sat 04:35:26 PM 47.8303 -119.6800 288° West 379 436 16,300 -2,754 Descending Seattle Center
Sat 04:36:27 PM 47.8633 -119.8039 292° West 333 383 13,100 -1,537 Descending Seattle Center
Sat 04:37:27 PM 47.8981 -119.9289 293° West 329 379 13,200  Climbing Seattle Center
Sat 04:38:28 PM 47.8719 -120.0236 248° West 290 334 13,100 -98 Descending Seattle Center
Sat 04:39:29 PM 47.8239 -119.9669 142° Southeast 224 258 13,000 -49 Descending Seattle Center
Sat 04:40:30 PM 47.7858 -119.9031 132° Southeast 195 224 13,000  Level Seattle Center
Sat 04:41:31 PM 47.7517 -119.8450 131° Southeast 189 217 13,000 -50 Level Seattle Center
Sat 04:42:31 PM 47.7175 -119.7881 132° Southeast 188 216 12,900 298 Descending Seattle Center
Sat 04:43:32 PM 47.6931 -119.7269 121° Southeast 177 204 13,600 885 Climbing Seattle Center
Sat 04:44:33 PM 47.6900 -119.6544 94° East 177 204 14,700 -49 Climbing Seattle Center
Sat 04:45:34 PM 47.6817 -119.5811 100° East 179 206 13,500 -738 Descending Seattle Center
Sat 04:46:35 PM 47.6700 -119.5147 105° East 157 181 13,200 49 Descending Seattle Center
Sat 04:47:36 PM 47.6531 -119.4450 110° East 177 204 13,600 -595 Climbing Seattle Center
Sat 04:48:36 PM 47.6094 -119.3953 142° Southeast 206 237 12,000 -1,636 Descending Seattle Center
Sat 04:49:37 PM 47.5625 -119.3517 148° Southeast 200 230 10,300 -1,623 Descending Seattle Center
Sat 04:50:38 PM 47.5161 -119.3069 147° Southeast 200 230 8,700 -1,525 Descending Seattle Center
Sat 04:51:39 PM 47.4631 -119.3092 182° South 188 216 7,200 -1,475 Descending Seattle Center
Sat 04:52:40 PM 47.4186 -119.3425 207° Southwest 180 207 5,700 -1,438 Descending Seattle Center
Sat 04:53:40 PM 47.3694 -119.3672 199° South 187 215 4,300 -1,240 Descending Seattle Center
Sat 04:54:41 PM 47.3200 -119.3722 184° South 181 208 3,200 -984 Descending Seattle Center
Sat 04:55:42 PM 47.2722 -119.3483 161° South 181 208 2,300 4,082 Descending Seattle Center
Sat 04:56:43 PM 47.2242 -119.3261 163° South 172 198 11,500 -541 Climbing Seattle Center
Sat 04:57:44 PM 47.1903 -119.3083 160° South 168 193 1,200 -10,131 Descending Seattle Center
Sat 04:59:00 PM 47.2000 -119.3167 326° Northwest  Level FlightAware Approximate

Login

Don't have an account? Register now (free) for customized features, flight alerts, and more!